Terminal Aerodrome Forecast
Issued by NWS

Home | Current Version | Previous Version | Text Only | Print | Product List | Glossary On
Versions: 1 2 3 4 5 6 7 8 9 10 11 12 13 14 15
000
FTUS45 KGJT 210006 AAA
TAFCNY
TAF AMD
KCNY 210006Z 2100/2124 35015G25KT P6SM VCTS SCT080CB BKN200
      TEMPO 2100/2102 35025G35KT -TSRA BKN070CB
     FM210300 26003KT P6SM FEW100
     FM211200 13005KT P6SM SKC
     FM211900 18005KT P6SM SCT100 SCT250=

USA.gov is the U.S. government's official web portal to all federal, state and local government web resources and services.